Time;durP1;ratioP1;P1;durP2;ratioP2;P2;SDS_P1;SDS_P2;PMS_P1;PMS_P2;Temp;Humidity;BMP_temperature;BMP_pressure;BME280_temperature;BME280_humidity;BME280_pressure;Samples;Min_cycle;Max_cycle;Signal;HPM_P1;HPM_P2
2023/06/25 00:01:54;;;;;;;7.50;5.82;;;;;;;27.52;41.85;99801.88;4376484;32;34000;-67
2023/06/25 00:04:23;;;;;;;7.50;5.65;;;;;;;27.52;41.88;99799.12;4376913;32;34139;-66
2023/06/25 00:06:51;;;;;;;8.25;5.00;;;;;;;27.51;41.91;99795.53;4377057;32;33781;-68
2023/06/25 00:09:18;;;;;;;7.65;5.40;;;;;;;27.49;41.96;99794.16;4377237;32;34830;-65
2023/06/25 00:11:46;;;;;;;7.40;5.43;;;;;;;27.48;41.98;99797.97;4377092;32;34645;-65
2023/06/25 00:14:13;;;;;;;7.40;5.40;;;;;;;27.45;42.01;99794.66;4377490;32;34219;-68
2023/06/25 00:16:41;;;;;;;7.87;5.62;;;;;;;27.45;42.05;99802.87;4377186;32;33859;-65
2023/06/25 00:19:09;;;;;;;7.20;5.47;;;;;;;27.44;42.04;99812.19;4377074;32;33436;-65
2023/06/25 00:21:37;;;;;;;7.68;5.65;;;;;;;27.44;42.07;99808.63;4377157;32;33625;-67
2023/06/25 00:24:04;;;;;;;7.15;5.68;;;;;;;27.43;42.10;99815.19;4377557;32;34328;-65
2023/06/25 00:26:32;;;;;;;8.45;5.37;;;;;;;27.40;42.15;99816.50;4377016;32;33808;-65
2023/06/25 00:29:00;;;;;;;6.95;5.32;;;;;;;27.40;42.19;99815.69;4377184;32;34003;-68
2023/06/25 00:31:27;;;;;;;8.10;5.12;;;;;;;27.39;42.22;99830.47;4377131;32;33789;-65
2023/06/25 00:33:55;;;;;;;7.62;5.70;;;;;;;27.37;42.29;99832.63;4376806;32;34932;-66
2023/06/25 00:36:24;;;;;;;8.30;5.72;;;;;;;27.35;42.39;99838.34;4363513;32;33551;-66
2023/06/25 00:38:51;;;;;;;6.95;5.03;;;;;;;27.35;42.42;99835.63;4377012;32;34716;-66
2023/06/25 00:41:19;;;;;;;6.78;5.30;;;;;;;27.33;42.42;99840.53;4373129;32;34105;-64
2023/06/25 00:43:47;;;;;;;9.52;5.12;;;;;;;27.32;42.44;99841.59;4368394;32;34050;-64
2023/06/25 00:46:15;;;;;;;8.15;5.43;;;;;;;27.31;42.45;99834.47;4373866;32;33291;-64
2023/06/25 00:48:47;;;;;;;8.15;5.07;;;;;;;27.31;42.50;99833.63;4351393;32;34616;-66
2023/06/25 00:51:16;;;;;;;7.60;5.12;;;;;;;27.30;42.56;99831.97;4376937;32;34863;-64
2023/06/25 00:53:44;;;;;;;7.93;5.47;;;;;;;27.29;42.63;99841.28;4376969;32;34914;-64
2023/06/25 00:56:12;;;;;;;7.53;5.47;;;;;;;27.28;42.69;99842.34;4363301;32;33528;-64
2023/06/25 00:58:40;;;;;;;7.07;5.28;;;;;;;27.28;42.72;99845.94;4357849;32;33685;-64
2023/06/25 01:01:15;;;;;;;6.93;4.93;;;;;;;27.29;42.77;99839.38;4348623;32;34009;-64
2023/06/25 01:03:46;;;;;;;6.53;5.00;;;;;;;27.26;42.84;99845.34;4348926;32;34475;-64
2023/06/25 01:06:29;;;;;;;6.97;5.40;;;;;;;27.27;42.87;99838.78;4349196;32;33515;-64
2023/06/25 01:08:59;;;;;;;7.18;5.07;;;;;;;27.29;42.90;99836.62;4348510;32;33867;-65
2023/06/25 01:11:28;;;;;;;8.60;5.40;;;;;;;27.26;42.96;99826.16;4361722;32;34775;-64
2023/06/25 01:13:56;;;;;;;7.53;5.50;;;;;;;27.27;42.96;99827.00;4361747;32;34187;-64
2023/06/25 01:16:23;;;;;;;7.12;5.37;;;;;;;27.27;43.02;99821.50;4361878;32;33454;-64
2023/06/25 01:18:51;;;;;;;7.65;5.60;;;;;;;27.27;43.06;99824.25;4348508;32;34642;-65
2023/06/25 01:21:31;;;;;;;8.10;5.62;;;;;;;27.26;43.08;99819.88;4361780;32;33674;-64
2023/06/25 01:23:59;;;;;;;7.40;4.82;;;;;;;27.27;43.08;99805.06;4348467;32;34144;-64
2023/06/25 01:26:26;;;;;;;6.78;5.15;;;;;;;27.26;43.12;99798.78;4348648;32;33845;-64
2023/06/25 01:28:55;;;;;;;6.95;5.50;;;;;;;27.26;43.19;99795.22;4361898;32;33626;-64
2023/06/25 01:31:30;;;;;;;7.55;5.47;;;;;;;27.26;43.20;99792.47;4361721;32;34722;-66
2023/06/25 01:33:58;;;;;;;8.13;5.60;;;;;;;27.26;43.24;99801.50;4361574;32;34086;-64
2023/06/25 01:36:26;;;;;;;10.48;5.28;;;;;;;27.25;43.31;99804.50;4361358;32;34517;-64
2023/06/25 01:38:54;;;;;;;7.22;5.72;;;;;;;27.25;43.35;99796.28;4376641;32;33700;-63
2023/06/25 01:41:22;;;;;;;8.40;5.25;;;;;;;27.25;43.43;99796.28;4376453;32;33999;-64
2023/06/25 01:43:50;;;;;;;7.62;5.70;;;;;;;27.24;43.50;99797.38;4376503;32;34206;-64
2023/06/25 01:46:17;;;;;;;8.77;5.12;;;;;;;27.21;43.51;99798.69;4376685;32;34583;-64
2023/06/25 01:48:45;;;;;;;7.45;4.72;;;;;;;27.22;43.54;99800.34;4376492;32;33835;-65
2023/06/25 01:51:13;;;;;;;7.78;5.35;;;;;;;27.22;43.55;99800.34;4376568;32;33883;-64
2023/06/25 01:53:40;;;;;;;8.05;5.30;;;;;;;27.21;43.56;99807.75;4376615;32;33889;-64
2023/06/25 01:56:08;;;;;;;6.90;5.07;;;;;;;27.20;43.65;99797.88;4376276;32;33903;-65
2023/06/25 01:58:35;;;;;;;8.82;5.65;;;;;;;27.19;43.73;99798.97;4376791;32;33850;-65
2023/06/25 02:01:03;;;;;;;7.45;4.90;;;;;;;27.20;43.78;99805.28;4376437;32;33878;-64
2023/06/25 02:03:31;;;;;;;8.90;4.93;;;;;;;27.19;43.78;99806.34;4376363;32;33860;-65
2023/06/25 02:05:58;;;;;;;6.57;5.20;;;;;;;27.19;43.81;99803.63;4375154;32;33447;-64
2023/06/25 02:08:26;;;;;;;7.28;5.37;;;;;;;27.18;43.84;99799.19;4376648;32;34348;-64
2023/06/25 02:10:54;;;;;;;9.02;5.68;;;;;;;27.17;43.90;99792.88;4376252;32;33986;-63
2023/06/25 02:13:21;;;;;;;6.82;5.20;;;;;;;27.17;43.93;99809.31;4376329;32;34203;-65
2023/06/25 02:15:49;;;;;;;6.95;5.45;;;;;;;27.17;44.00;99803.03;4375806;32;33718;-64
2023/06/25 02:18:18;;;;;;;6.97;5.72;;;;;;;27.17;44.00;99803.03;4376162;32;34098;-67
2023/06/25 02:20:45;;;;;;;7.43;5.82;;;;;;;27.16;44.12;99809.59;4376120;32;33958;-67
2023/06/25 02:23:13;;;;;;;7.50;5.15;;;;;;;27.16;44.10;99804.09;4376444;32;34194;-67
2023/06/25 02:25:41;;;;;;;6.50;4.87;;;;;;;27.16;44.08;99809.59;4377832;32;34540;-68
2023/06/25 02:28:09;;;;;;;7.45;5.72;;;;;;;27.16;44.04;99810.41;4378029;32;33788;-67
2023/06/25 02:30:36;;;;;;;8.10;5.50;;;;;;;27.16;44.07;99810.41;4378029;32;34022;-66
2023/06/25 02:33:05;;;;;;;7.22;5.60;;;;;;;27.15;44.18;99806.03;4377870;32;33839;-67
2023/06/25 02:35:32;;;;;;;9.77;5.60;;;;;;;27.15;44.18;99806.03;4377935;32;33543;-68
2023/06/25 02:38:00;;;;;;;7.07;5.40;;;;;;;27.16;44.20;99809.59;4377912;32;33908;-69
2023/06/25 02:40:28;;;;;;;7.53;5.87;;;;;;;27.15;44.17;99813.41;4364249;32;33772;-66
2023/06/25 02:42:56;;;;;;;8.10;5.78;;;;;;;27.16;44.18;99813.16;4377802;32;34095;-68
2023/06/25 02:45:24;;;;;;;6.85;5.50;;;;;;;27.14;44.18;99812.59;4377865;32;33755;-69
2023/06/25 02:47:51;;;;;;;6.25;5.15;;;;;;;27.15;44.21;99816.16;4377904;32;34573;-68
2023/06/25 02:50:19;;;;;;;7.25;5.20;;;;;;;27.13;44.26;99808.16;4377836;32;34011;-66
2023/06/25 02:52:47;;;;;;;8.20;6.00;;;;;;;27.13;44.29;99810.91;4377354;32;34531;-65
2023/06/25 02:55:15;;;;;;;8.57;5.90;;;;;;;27.13;44.26;99810.91;4349245;32;34296;-65
2023/06/25 02:57:42;;;;;;;8.30;5.03;;;;;;;27.13;44.27;99812.81;4362797;32;33826;-66
2023/06/25 03:00:10;;;;;;;7.95;5.60;;;;;;;27.14;44.29;99811.72;4362625;32;34783;-68
2023/06/25 03:02:40;;;;;;;9.68;6.70;;;;;;;27.13;44.29;99816.38;4362983;32;34066;-68
2023/06/25 03:05:08;;;;;;;6.97;5.43;;;;;;;27.14;44.30;99812.59;4363075;32;34262;-67
2023/06/25 03:07:36;;;;;;;7.72;5.72;;;;;;;27.15;44.33;99816.16;4362900;32;33883;-64
2023/06/25 03:10:05;;;;;;;6.62;5.25;;;;;;;27.14;44.40;99812.59;4363038;32;33709;-68
2023/06/25 03:12:32;;;;;;;6.97;4.78;;;;;;;27.13;44.47;99818.28;4363063;32;34077;-66
2023/06/25 03:15:00;;;;;;;7.62;5.70;;;;;;;27.13;44.60;99810.91;4362502;32;34368;-68
2023/06/25 03:17:28;;;;;;;7.12;5.57;;;;;;;27.13;44.60;99810.06;4362704;32;33920;-67
2023/06/25 03:19:56;;;;;;;9.13;5.40;;;;;;;27.14;44.65;99809.00;4362962;32;34591;-68
2023/06/25 03:22:24;;;;;;;7.60;5.60;;;;;;;27.13;44.69;99810.91;4371603;32;34260;-66
2023/06/25 03:24:52;;;;;;;8.60;5.25;;;;;;;27.14;44.73;99809.00;4377763;32;34433;-67
2023/06/25 03:27:20;;;;;;;7.97;5.37;;;;;;;27.14;44.75;99819.94;4377878;32;34604;-66
2023/06/25 03:29:48;;;;;;;6.68;5.30;;;;;;;27.13;44.85;99818.28;4377619;32;34629;-67
2023/06/25 03:32:15;;;;;;;7.18;5.12;;;;;;;27.14;44.91;99815.31;4377510;32;34094;-68
2023/06/25 03:34:43;;;;;;;7.87;5.40;;;;;;;27.15;45.05;99816.16;4377553;32;34276;-68
2023/06/25 03:37:10;;;;;;;8.13;5.93;;;;;;;27.14;45.14;99818.06;4377420;32;33922;-68
2023/06/25 03:39:38;;;;;;;14.02;5.43;;;;;;;27.14;45.17;99818.06;4377469;32;33854;-67
2023/06/25 03:42:06;;;;;;;6.65;5.20;;;;;;;27.14;45.24;99815.31;4377514;32;33988;-68
2023/06/25 03:44:34;;;;;;;7.12;5.05;;;;;;;27.15;45.23;99818.91;4377619;32;33704;-64
2023/06/25 03:47:01;;;;;;;7.87;5.40;;;;;;;27.15;45.24;99821.62;4377828;32;33456;-66
2023/06/25 03:49:29;;;;;;;7.45;5.10;;;;;;;27.16;45.33;99826.03;4377687;32;34098;-67
2023/06/25 03:51:56;;;;;;;7.37;5.00;;;;;;;27.14;45.47;99823.53;4376891;32;34724;-66
2023/06/25 03:54:24;;;;;;;7.55;5.18;;;;;;;27.15;45.60;99818.91;4377246;32;33296;-69
2023/06/25 03:56:52;;;;;;;6.55;4.82;;;;;;;27.14;45.63;99811.72;4377348;32;34233;-65
2023/06/25 03:59:19;;;;;;;7.00;4.68;;;;;;;27.14;45.74;99819.94;4371021;32;34892;-64
2023/06/25 04:01:48;;;;;;;9.77;5.43;;;;;;;27.14;45.76;99818.06;4371181;32;34073;-65
2023/06/25 04:04:16;;;;;;;6.60;4.93;;;;;;;27.14;46.03;99825.44;4371502;32;33287;-62
2023/06/25 04:06:43;;;;;;;7.90;5.03;;;;;;;27.13;46.13;99819.13;4377340;32;34643;-63
2023/06/25 04:09:14;;;;;;;6.55;5.07;;;;;;;27.13;46.10;99815.56;4377627;32;33891;-63
2023/06/25 04:11:42;;;;;;;6.70;5.07;;;;;;;27.12;46.06;99819.38;4377305;32;34755;-63
2023/06/25 04:14:09;;;;;;;6.60;4.53;;;;;;;27.12;46.05;99820.22;4377273;32;33327;-63
2023/06/25 04:16:37;;;;;;;6.70;4.50;;;;;;;27.12;46.12;99822.12;4369225;32;34337;-63
2023/06/25 04:19:04;;;;;;;7.70;5.22;;;;;;;27.12;46.25;99822.94;4362292;32;34678;-63
2023/06/25 04:21:32;;;;;;;6.87;4.60;;;;;;;27.12;46.26;99822.12;4362560;32;34699;-62
2023/06/25 04:24:00;;;;;;;6.40;4.62;;;;;;;27.12;46.25;99822.12;4362652;32;33331;-63
2023/06/25 04:26:28;;;;;;;7.00;4.47;;;;;;;27.13;46.25;99816.38;4362444;32;34048;-63
2023/06/25 04:28:56;;;;;;;7.35;5.28;;;;;;;27.13;46.37;99823.78;4362129;32;33921;-63
2023/06/25 04:31:23;;;;;;;6.62;4.40;;;;;;;27.13;46.50;99818.28;4362483;32;34139;-63
2023/06/25 04:33:52;;;;;;;8.63;5.28;;;;;;;27.12;46.50;99812.00;4362379;32;33784;-62
2023/06/25 04:36:20;;;;;;;7.90;5.37;;;;;;;27.12;46.58;99816.66;4362129;32;33917;-63
2023/06/25 04:38:49;;;;;;;8.48;6.05;;;;;;;27.14;46.64;99811.72;4362508;32;33782;-63
2023/06/25 04:41:16;;;;;;;10.25;4.82;;;;;;;27.12;46.73;99813.91;4361999;32;34217;-63
2023/06/25 04:43:44;;;;;;;6.97;4.93;;;;;;;27.11;46.82;99812.25;4362290;32;34270;-65
2023/06/25 04:46:12;;;;;;;9.18;5.25;;;;;;;27.11;46.88;99812.25;4361770;32;34621;-62
2023/06/25 04:48:43;;;;;;;6.97;5.30;;;;;;;27.10;46.88;99805.94;4362014;32;34886;-64
2023/06/25 04:51:11;;;;;;;9.40;5.07;;;;;;;27.10;46.84;99811.44;4348721;32;34114;-64
2023/06/25 04:53:39;;;;;;;7.97;5.43;;;;;;;27.10;46.82;99808.69;4373069;32;34459;-62
2023/06/25 04:56:07;;;;;;;7.87;5.57;;;;;;;27.11;46.83;99815.00;4376759;32;33964;-63
2023/06/25 04:58:35;;;;;;;7.43;5.07;;;;;;;27.11;46.88;99815.81;4377077;32;34807;-63
2023/06/25 05:01:03;;;;;;;8.68;5.72;;;;;;;27.12;46.83;99808.44;4376950;32;34226;-65
2023/06/25 05:03:31;;;;;;;6.55;4.90;;;;;;;27.12;46.89;99814.72;4376910;32;33343;-66
2023/06/25 05:05:58;;;;;;;9.23;5.32;;;;;;;27.11;46.89;99813.09;4377192;32;34068;-67
2023/06/25 05:08:26;;;;;;;8.48;5.50;;;;;;;27.11;47.01;99821.28;4376997;32;33831;-65
2023/06/25 05:10:54;;;;;;;8.07;5.95;;;;;;;27.11;47.00;99813.09;4376773;32;34078;-67
2023/06/25 05:13:21;;;;;;;7.85;5.50;;;;;;;27.12;47.06;99813.91;4376915;32;33643;-66
2023/06/25 05:15:50;;;;;;;7.55;5.68;;;;;;;27.11;46.93;99817.72;4376951;32;33724;-66
2023/06/25 05:18:18;;;;;;;9.10;6.00;;;;;;;27.11;46.90;99823.22;4376903;32;34053;-67
2023/06/25 05:20:45;;;;;;;9.45;5.80;;;;;;;27.11;46.98;99815.81;4376850;32;34930;-66
2023/06/25 05:23:12;;;;;;;8.25;5.32;;;;;;;27.11;47.04;99821.28;4377007;32;33750;-67
2023/06/25 05:25:40;;;;;;;7.55;5.50;;;;;;;27.11;46.99;99821.28;4376675;32;34468;-66
2023/06/25 05:28:08;;;;;;;7.68;5.65;;;;;;;27.11;46.99;99817.72;4376834;32;33523;-66
2023/06/25 05:30:36;;;;;;;7.18;5.53;;;;;;;27.11;46.94;99826.78;4376762;32;34074;-66
2023/06/25 05:33:04;;;;;;;9.93;5.40;;;;;;;27.11;46.98;99828.69;4376675;32;34708;-63
2023/06/25 05:35:31;;;;;;;7.18;5.57;;;;;;;27.12;46.99;99831.16;4363246;32;33913;-66
2023/06/25 05:37:59;;;;;;;7.30;5.97;;;;;;;27.12;46.93;99831.16;4376609;32;33521;-66
2023/06/25 05:40:27;;;;;;;7.40;5.30;;;;;;;27.12;46.96;99836.62;4376613;32;33793;-66
2023/06/25 05:42:55;;;;;;;7.65;5.45;;;;;;;27.12;46.90;99841.28;4376497;32;33638;-65
2023/06/25 05:45:22;;;;;;;6.95;5.60;;;;;;;27.13;46.86;99840.22;4376591;32;34449;-66
2023/06/25 05:47:50;;;;;;;7.75;6.05;;;;;;;27.12;46.89;99836.62;4363181;32;33528;-67
2023/06/25 05:50:18;;;;;;;8.05;5.97;;;;;;;27.12;46.96;99847.59;4376509;32;34081;-68
2023/06/25 05:52:46;;;;;;;7.12;5.43;;;;;;;27.13;46.93;99845.69;4363171;32;33671;-66
2023/06/25 05:55:15;;;;;;;7.15;5.40;;;;;;;27.12;46.99;99847.59;4376595;32;34711;-66
2023/06/25 05:57:42;;;;;;;9.77;5.45;;;;;;;27.13;47.00;99841.03;4376403;32;34540;-67
2023/06/25 06:00:10;;;;;;;9.32;5.45;;;;;;;27.14;46.97;99841.84;4376380;32;34478;-66
2023/06/25 06:02:39;;;;;;;7.10;5.05;;;;;;;27.15;46.88;99840.81;4376419;32;34555;-67
2023/06/25 06:05:07;;;;;;;9.20;5.40;;;;;;;27.15;46.82;99841.63;4376211;32;35165;-64
2023/06/25 06:07:34;;;;;;;7.12;5.05;;;;;;;27.15;46.98;99849.84;4376531;32;34722;-64
2023/06/25 06:10:02;;;;;;;7.03;4.82;;;;;;;27.13;47.02;99843.78;4376324;32;33698;-66
2023/06/25 06:12:30;;;;;;;6.53;5.05;;;;;;;27.12;46.94;99847.59;4376167;32;33689;-67
2023/06/25 06:14:57;;;;;;;6.55;4.50;;;;;;;27.12;46.94;99842.13;4376152;32;33948;-65
2023/06/25 06:17:25;;;;;;;6.80;4.53;;;;;;;27.11;46.95;99840.47;4350670;32;33898;-67
2023/06/25 06:19:53;;;;;;;7.28;4.57;;;;;;;27.13;46.91;99840.22;4376245;32;34074;-67
2023/06/25 06:22:22;;;;;;;8.13;4.47;;;;;;;27.13;46.92;99843.78;4375937;32;34469;-66
2023/06/25 06:24:49;;;;;;;8.40;4.68;;;;;;;27.12;46.93;99847.59;4376253;32;33930;-67
2023/06/25 06:27:17;;;;;;;7.82;4.90;;;;;;;27.12;46.91;99842.13;4376161;32;34189;-66
2023/06/25 06:29:45;;;;;;;6.20;4.40;;;;;;;27.12;46.98;99844.03;4375952;32;34059;-64
2023/06/25 06:32:12;;;;;;;6.22;4.07;;;;;;;27.12;46.92;99849.50;4376063;32;33652;-65
2023/06/25 06:34:41;;;;;;;7.50;4.65;;;;;;;27.12;46.89;99844.03;4362592;32;33635;-67
2023/06/25 06:37:08;;;;;;;5.30;3.47;;;;;;;27.12;46.87;99847.59;4375704;32;34779;-65
2023/06/25 06:39:36;;;;;;;6.10;3.97;;;;;;;27.12;46.96;99853.06;4375976;32;34400;-66
2023/06/25 06:42:04;;;;;;;5.60;3.90;;;;;;;27.13;46.95;99853.91;4375897;32;33143;-66
2023/06/25 06:44:32;;;;;;;8.73;4.28;;;;;;;27.12;46.89;99858.56;4345970;33;34587;-63
2023/06/25 06:46:59;;;;;;;5.87;4.25;;;;;;;27.10;46.81;99855.25;4346121;33;34047;-63
2023/06/25 06:49:27;;;;;;;5.75;3.83;;;;;;;27.10;46.69;99852.50;4346025;33;34296;-63
2023/06/25 06:51:55;;;;;;;5.55;3.60;;;;;;;27.10;46.58;99849.78;4345718;33;33539;-63
2023/06/25 06:54:22;;;;;;;5.82;3.75;;;;;;;27.11;46.54;99858.81;4344451;33;32748;-63
2023/06/25 06:56:50;;;;;;;5.00;3.50;;;;;;;27.08;46.51;99849.16;4345896;33;33938;-64
2023/06/25 06:59:17;;;;;;;6.03;3.47;;;;;;;27.09;46.49;99848.13;4345925;33;34274;-62
2023/06/25 07:01:45;;;;;;;6.22;3.50;;;;;;;27.08;46.50;99846.44;4345906;33;34412;-64
2023/06/25 07:04:13;;;;;;;4.47;3.12;;;;;;;27.09;46.51;99859.06;4345851;33;33867;-64
2023/06/25 07:06:43;;;;;;;5.22;3.45;;;;;;;27.09;46.54;99856.34;4345895;33;33654;-63
2023/06/25 07:09:11;;;;;;;7.45;2.92;;;;;;;27.09;46.59;99848.13;4345822;33;33702;-62
2023/06/25 07:11:38;;;;;;;4.68;3.05;;;;;;;27.10;46.69;99848.94;4347848;33;33610;-64
2023/06/25 07:14:07;;;;;;;5.15;3.28;;;;;;;27.09;46.57;99852.75;4347767;33;33957;-63
2023/06/25 07:16:35;;;;;;;4.80;2.90;;;;;;;27.06;46.45;99856.78;4347856;33;33674;-63
2023/06/25 07:19:03;;;;;;;4.60;2.85;;;;;;;27.05;46.35;99852.41;4347846;33;34102;-63
2023/06/25 07:21:30;;;;;;;5.28;3.05;;;;;;;27.04;46.33;99853.44;4347785;32;32936;-63
2023/06/25 07:23:58;;;;;;;5.47;2.62;;;;;;;27.01;46.21;99850.41;4347810;33;33504;-65
2023/06/25 07:26:25;;;;;;;6.60;2.83;;;;;;;27.01;46.21;99855.87;4347747;33;33976;-62
2023/06/25 07:28:53;;;;;;;4.12;2.55;;;;;;;27.01;46.28;99853.16;4358739;32;33608;-62
2023/06/25 07:31:20;;;;;;;4.82;2.80;;;;;;;27.03;46.31;99848.22;4348169;33;33678;-64
2023/06/25 07:33:48;;;;;;;5.65;2.85;;;;;;;27.04;46.29;99849.88;4347919;33;34146;-64
2023/06/25 07:36:16;;;;;;;4.87;2.83;;;;;;;27.05;46.23;99840.63;4358751;32;33846;-65
2023/06/25 07:38:44;;;;;;;7.85;2.67;;;;;;;27.06;46.22;99847.75;4347542;33;34435;-63
2023/06/25 07:41:11;;;;;;;4.68;2.70;;;;;;;27.06;46.23;99843.09;4347612;33;33309;-63
2023/06/25 07:43:39;;;;;;;4.87;2.80;;;;;;;27.08;46.28;99846.44;4366678;32;33816;-64
2023/06/25 07:46:06;;;;;;;5.12;2.92;;;;;;;27.09;46.29;99848.13;4377406;32;33817;-63
2023/06/25 07:48:34;;;;;;;6.53;3.30;;;;;;;27.10;46.28;99849.78;4376963;32;34886;-62
2023/06/25 07:51:03;;;;;;;6.15;4.20;;;;;;;27.12;46.37;99852.25;4377394;32;33709;-63
2023/06/25 07:53:31;;;;;;;7.55;5.22;;;;;;;27.12;46.51;99850.34;4367123;32;33398;-63
2023/06/25 07:55:58;;;;;;;8.40;5.95;;;;;;;27.13;46.64;99849.25;4362260;32;33847;-62
2023/06/25 07:58:30;;;;;;;6.47;5.03;;;;;;;27.15;46.71;99847.09;4362330;32;34769;-63
2023/06/25 08:00:58;;;;;;;8.55;5.35;;;;;;;27.15;46.72;99847.09;4362424;32;33372;-66
2023/06/25 08:03:25;;;;;;;7.90;5.20;;;;;;;27.17;46.70;99846.84;4362252;32;33839;-65
2023/06/25 08:05:53;;;;;;;6.90;5.10;;;;;;;27.17;46.75;99842.19;4356952;32;34768;-63
2023/06/25 08:08:21;;;;;;;9.98;4.57;;;;;;;27.20;46.79;99846.34;4377294;32;34062;-62
2023/06/25 08:10:51;;;;;;;10.98;5.03;;;;;;;27.20;46.76;99849.94;4377169;32;33275;-63
2023/06/25 08:13:19;;;;;;;8.57;4.78;;;;;;;27.21;46.68;99845.28;4377332;32;33483;-63
2023/06/25 08:15:47;;;;;;;11.20;4.75;;;;;;;27.24;46.72;99846.69;4351862;32;33878;-63
2023/06/25 08:18:15;;;;;;;9.85;4.55;;;;;;;27.23;46.72;99842.28;4376968;32;34075;-63
2023/06/25 08:20:43;;;;;;;8.55;4.75;;;;;;;27.25;46.68;99851.09;4376892;32;34377;-62
2023/06/25 08:23:10;;;;;;;7.95;4.87;;;;;;;27.25;46.65;99840.13;4376675;32;33837;-63
2023/06/25 08:25:38;;;;;;;8.48;4.18;;;;;;;27.25;46.60;99842.88;4377136;32;33718;-63
2023/06/25 08:28:06;;;;;;;9.35;4.47;;;;;;;27.26;46.60;99842.59;4377236;32;34783;-63
2023/06/25 08:30:33;;;;;;;8.27;4.05;;;;;;;27.26;46.56;99842.59;4351476;32;32898;-63
2023/06/25 08:33:01;;;;;;;7.50;4.25;;;;;;;27.27;46.57;99846.16;4363697;32;34024;-63
2023/06/25 08:35:30;;;;;;;9.20;4.53;;;;;;;27.27;46.55;99847.00;4377392;32;33944;-64
2023/06/25 08:37:57;;;;;;;11.90;4.35;;;;;;;27.28;46.43;99839.59;4377129;32;33835;-63
2023/06/25 08:40:26;;;;;;;6.70;3.90;;;;;;;27.32;46.46;99841.59;4376918;32;33401;-67
2023/06/25 08:42:53;;;;;;;6.12;3.72;;;;;;;27.32;46.35;99838.03;4363454;32;34924;-63
2023/06/25 08:45:21;;;;;;;7.90;3.75;;;;;;;27.32;46.20;99835.28;4377042;32;33772;-63
2023/06/25 08:47:59;;;;;;;7.03;3.70;;;;;;;27.33;46.15;99832.31;4376951;32;34174;-64
2023/06/25 08:50:26;;;;;;;7.15;3.75;;;;;;;27.34;46.11;99831.22;4363825;32;34603;-63
2023/06/25 08:52:55;;;;;;;9.52;3.50;;;;;;;27.34;46.07;99839.44;4370317;32;34755;-63
2023/06/25 08:55:24;;;;;;;10.55;3.78;;;;;;;27.34;46.05;99825.75;4348706;32;33784;-65
2023/06/25 08:57:51;;;;;;;15.05;3.75;;;;;;;27.34;46.04;99830.41;4348623;32;34038;-65
2023/06/25 09:00:19;;;;;;;17.37;3.95;;;;;;;27.35;46.03;99829.31;4361859;32;33498;-63
2023/06/25 09:02:47;;;;;;;16.90;4.20;;;;;;;27.38;46.06;99835.13;4362075;32;33849;-64
2023/06/25 09:05:22;;;;;;;10.90;3.28;;;;;;;27.38;46.02;99824.16;4348425;32;33032;-64
2023/06/25 09:07:50;;;;;;;12.98;3.55;;;;;;;27.40;45.97;99826.66;4348821;32;34637;-65
2023/06/25 09:10:21;;;;;;;9.55;3.75;;;;;;;27.39;45.92;99814.03;4361891;32;33611;-64
2023/06/25 09:12:49;;;;;;;11.48;3.65;;;;;;;27.38;45.90;99818.69;4361744;32;33938;-65
2023/06/25 09:15:23;;;;;;;9.00;3.03;;;;;;;27.37;45.78;99819.78;4348545;32;33579;-65
2023/06/25 09:17:55;;;;;;;6.37;3.00;;;;;;;27.38;45.73;99818.69;4361797;32;34931;-66
2023/06/25 09:20:24;;;;;;;5.72;2.90;;;;;;;27.38;45.67;99815.12;4348452;32;33703;-65
2023/06/25 09:22:54;;;;;;;5.72;2.78;;;;;;;27.37;45.60;99818.91;4336440;32;34661;-64
2023/06/25 09:25:26;;;;;;;6.35;2.78;;;;;;;27.36;45.53;99809.87;4361863;32;34795;-65
2023/06/25 09:27:55;;;;;;;5.00;2.83;;;;;;;27.38;45.52;99809.63;4348419;32;33893;-67
2023/06/25 09:30:22;;;;;;;8.35;2.50;;;;;;;27.37;45.42;99810.69;4348474;32;33662;-66
2023/06/25 09:32:54;;;;;;;5.43;2.55;;;;;;;27.37;45.18;99811.56;4347810;32;34638;-66
2023/06/25 09:35:23;;;;;;;5.62;2.30;;;;;;;27.37;45.10;99810.69;4348360;32;34685;-66
2023/06/25 09:37:51;;;;;;;5.25;2.53;;;;;;;27.36;44.98;99803.56;4361747;32;34617;-65
2023/06/25 09:40:19;;;;;;;5.18;2.70;;;;;;;27.35;44.96;99805.47;4335905;32;33709;-66
2023/06/25 09:42:52;;;;;;;4.45;2.70;;;;;;;27.34;44.93;99795.59;4345540;33;33959;-67
2023/06/25 09:45:20;;;;;;;5.37;2.60;;;;;;;27.34;44.77;99801.09;4345489;33;34108;-63
2023/06/25 09:47:49;;;;;;;4.53;2.33;;;;;;;27.34;44.77;99803.81;4345361;33;33686;-64
2023/06/25 09:50:18;;;;;;;6.28;2.40;;;;;;;27.34;44.78;99800.25;4345352;33;33657;-65
2023/06/25 09:52:54;;;;;;;4.47;2.15;;;;;;;27.35;44.83;99796.44;4333342;33;33466;-64
2023/06/25 09:55:22;;;;;;;4.32;2.10;;;;;;;27.36;44.67;99792.59;4345671;33;33982;-66
2023/06/25 09:57:50;;;;;;;4.60;2.30;;;;;;;27.37;44.61;99791.50;4345442;33;34777;-65
2023/06/25 10:00:19;;;;;;;3.90;2.22;;;;;;;27.37;44.70;99792.38;4345233;33;33536;-63
2023/06/25 10:02:47;;;;;;;5.07;2.37;;;;;;;27.37;44.42;99791.50;4345463;33;33960;-63
2023/06/25 10:05:15;;;;;;;3.10;1.77;;;;;;;27.38;44.10;99784.97;4346599;33;33586;-63
2023/06/25 10:07:43;;;;;;;5.10;2.12;;;;;;;27.37;43.94;99783.28;4345180;33;34862;-63
2023/06/25 10:10:25;;;;;;;4.97;2.12;;;;;;;27.36;43.87;99778.91;4345417;33;33552;-64
2023/06/25 10:12:53;;;;;;;3.65;1.98;;;;;;;27.37;43.83;99778.69;4346312;33;33646;-63
2023/06/25 10:15:31;;;;;;;4.32;2.50;;;;;;;27.38;43.76;99779.50;4345081;33;34836;-65
2023/06/25 10:17:59;;;;;;;4.12;2.05;;;;;;;27.40;43.59;99774.59;4346362;33;35205;-63
2023/06/25 10:20:32;;;;;;;3.90;2.00;;;;;;;27.38;43.53;99776.75;4333119;33;33394;-63
2023/06/25 10:23:10;;;;;;;4.90;2.53;;;;;;;27.39;43.63;99772.94;4346294;33;33420;-63
2023/06/25 10:25:40;;;;;;;5.53;2.17;;;;;;;27.41;43.61;99770.75;4344871;33;34037;-65
2023/06/25 10:28:12;;;;;;;3.85;2.10;;;;;;;27.40;43.53;99778.16;4346318;33;34126;-66
2023/06/25 10:30:50;;;;;;;3.55;2.30;;;;;;;27.41;43.44;99774.31;4346076;33;33766;-65
2023/06/25 10:33:17;;;;;;;3.10;1.98;;;;;;;27.42;43.21;99775.19;4346087;33;34999;-63
2023/06/25 10:35:54;;;;;;;3.50;2.30;;;;;;;27.43;42.85;99766.69;4346020;33;33399;-65
2023/06/25 10:38:22;;;;;;;3.58;2.05;;;;;;;27.45;42.93;99774.66;4346173;33;34933;-64
2023/06/25 10:40:50;;;;;;;3.45;2.30;;;;;;;27.43;42.92;99772.16;4346235;33;33359;-65
2023/06/25 10:43:18;;;;;;;3.60;2.10;;;;;;;27.43;42.90;99765.88;4360697;32;33933;-65
2023/06/25 10:45:49;;;;;;;3.97;2.30;;;;;;;27.45;42.74;99760.94;4363639;32;33970;-63
2023/06/25 10:48:17;;;;;;;4.50;2.50;;;;;;;27.45;42.64;99771.91;4377816;32;34222;-64
2023/06/25 10:50:45;;;;;;;3.22;2.12;;;;;;;27.46;42.78;99768.06;4377938;32;33233;-65
2023/06/25 10:53:16;;;;;;;4.12;2.17;;;;;;;27.47;42.65;99775.25;4352043;32;34247;-65
2023/06/25 10:55:52;;;;;;;2.95;1.90;;;;;;;27.48;42.60;99762.38;4364347;32;35023;-63
2023/06/25 10:58:20;;;;;;;4.30;2.40;;;;;;;27.51;42.39;99770.06;4377845;32;34011;-66
2023/06/25 11:00:55;;;;;;;4.07;2.50;;;;;;;27.49;42.33;99761.28;4364376;32;33618;-65
2023/06/25 11:03:23;;;;;;;4.40;2.55;;;;;;;27.51;41.94;99762.66;4377630;32;34298;-64
2023/06/25 11:05:51;;;;;;;3.67;2.35;;;;;;;27.51;41.98;99759.09;4364305;32;34499;-65
2023/06/25 11:08:23;;;;;;;4.32;2.28;;;;;;;27.52;41.60;99758.03;4364154;32;34812;-65
2023/06/25 11:10:50;;;;;;;3.70;2.30;;;;;;;27.52;41.46;99753.38;4377573;32;33677;-63
2023/06/25 11:13:18;;;;;;;4.93;2.55;;;;;;;27.53;41.40;99745.97;4364083;32;33920;-65
2023/06/25 11:15:46;;;;;;;4.12;2.20;;;;;;;27.55;41.38;99752.03;4377573;32;33762;-64
2023/06/25 11:18:13;;;;;;;5.15;2.17;;;;;;;27.56;40.91;99757.25;4363928;32;34040;-63
2023/06/25 11:20:42;;;;;;;5.00;2.37;;;;;;;27.58;40.81;99746.88;4377460;32;34274;-64
2023/06/25 11:23:13;;;;;;;3.78;2.17;;;;;;;27.59;40.55;99747.69;4339831;32;32525;-64
2023/06/25 11:25:42;;;;;;;3.28;2.10;;;;;;;27.58;40.57;99749.59;4364259;32;34596;-64
2023/06/25 11:28:13;;;;;;;3.60;2.20;;;;;;;27.59;40.45;99736.72;4352095;32;33703;-63
2023/06/25 11:30:43;;;;;;;3.75;2.42;;;;;;;27.59;40.71;99742.22;4364237;32;33507;-65
2023/06/25 11:33:12;;;;;;;4.45;2.10;;;;;;;27.59;40.91;99736.72;4377507;32;35134;-65
2023/06/25 11:35:40;;;;;;;4.10;2.30;;;;;;;27.64;40.61;99742.25;4351560;32;32573;-63
2023/06/25 11:38:08;;;;;;;4.20;2.30;;;;;;;27.64;40.71;99731.31;4377089;32;34519;-63
2023/06/25 11:40:38;;;;;;;3.80;2.12;;;;;;;27.63;40.90;99724.16;4377030;32;34453;-66